createdAt,value
2022-09-12T00:00:28.269Z,84.35
2022-09-12T00:03:16.500Z,84.43
2022-09-12T00:05:45.904Z,85.10
2022-09-12T00:08:14.406Z,84.92
2022-09-12T00:10:44.200Z,85.49
2022-09-12T00:13:12.484Z,85.59
2022-09-12T00:15:41.539Z,85.79
2022-09-12T00:18:12.360Z,85.92
2022-09-12T00:20:47.196Z,86.73
2022-09-12T00:23:15.217Z,87.17
2022-09-12T00:25:43.741Z,87.24
2022-09-12T00:28:12.594Z,86.51
2022-09-12T00:30:42.139Z,87.02
2022-09-12T00:33:11.094Z,87.96
2022-09-12T00:35:56.898Z,88.14
2022-09-12T00:38:24.957Z,88.62
2022-09-12T00:40:52.960Z,88.59
2022-09-12T00:43:29.931Z,87.67
2022-09-12T00:45:58.662Z,86.99
2022-09-12T00:48:31.155Z,86.56
2022-09-12T00:50:59.078Z,86.17
2022-09-12T00:53:27.308Z,86.12
2022-09-12T00:55:56.625Z,85.79
2022-09-12T00:58:36.270Z,85.80
2022-09-12T01:01:04.521Z,86.31
2022-09-12T01:03:32.688Z,86.49
2022-09-12T01:06:00.699Z,86.66
2022-09-12T01:08:28.855Z,86.82
2022-09-12T01:10:57.808Z,86.85
2022-09-12T01:13:26.348Z,86.70
2022-09-12T01:15:55.359Z,86.96
2022-09-12T01:18:42.081Z,88.55
2022-09-12T01:21:28.663Z,88.86
2022-09-12T01:24:14.870Z,88.44
2022-09-12T01:26:46.210Z,88.19
2022-09-12T01:29:32.818Z,88.09
2022-09-12T01:32:08.938Z,87.79
2022-09-12T01:34:37.465Z,87.58
2022-09-12T01:37:05.366Z,87.77
2022-09-12T01:40:02.848Z,88.01
2022-09-12T01:42:49.930Z,88.25
2022-09-12T01:45:25.134Z,89.08
2022-09-12T01:48:01.123Z,89.00
2022-09-12T01:50:32.314Z,89.32
2022-09-12T01:53:14.918Z,89.21
2022-09-12T01:55:42.988Z,89.10
2022-09-12T01:58:11.227Z,88.62
2022-09-12T02:00:50.394Z,88.49
2022-09-12T02:03:20.817Z,88.04
2022-09-12T02:06:05.110Z,87.95
2022-09-12T02:08:40.737Z,87.57
2022-09-12T02:11:10.609Z,87.58
2022-09-12T02:13:42.249Z,87.97
2022-09-12T02:16:15.690Z,87.76
2022-09-12T02:18:49.394Z,87.48
2022-09-12T02:21:19.427Z,87.51
2022-09-12T02:23:51.562Z,88.27
2022-09-12T02:26:21.681Z,87.20
2022-09-12T02:28:50.820Z,86.61
2022-09-12T02:31:18.750Z,86.90
2022-09-12T02:33:50.095Z,87.35
2022-09-12T02:36:24.680Z,88.15
2022-09-12T02:38:53.106Z,88.38
2022-09-12T02:41:21.547Z,88.53
2022-09-12T02:43:50.629Z,89.24
2022-09-12T02:46:34.689Z,88.71
2022-09-12T02:49:03.065Z,88.61
2022-09-12T02:51:31.265Z,88.75
2022-09-12T02:53:59.465Z,89.08
2022-09-12T02:56:28.673Z,88.69
2022-09-12T02:59:01.245Z,88.09
2022-09-12T03:01:35.924Z,88.10
2022-09-12T03:04:16.063Z,88.30
2022-09-12T03:06:46.994Z,89.17
2022-09-12T03:09:35.122Z,88.74
2022-09-12T03:12:06.376Z,87.88
2022-09-12T03:15:13.759Z,87.52
2022-09-12T03:17:44.799Z,86.08
2022-09-12T03:20:19.414Z,86.25
2022-09-12T03:22:54.991Z,86.07
2022-09-12T03:25:32.785Z,87.15
2022-09-12T03:28:09.554Z,87.04
2022-09-12T03:30:41.997Z,86.70
2022-09-12T03:33:14.056Z,87.29
2022-09-12T03:35:42.175Z,88.02
2022-09-12T03:38:10.143Z,86.08
2022-09-12T03:40:38.421Z,85.89
2022-09-12T03:43:08.140Z,85.82
2022-09-12T03:45:36.543Z,86.27
2022-09-12T03:48:04.828Z,87.12
2022-09-12T03:50:32.864Z,87.33
2022-09-12T03:53:01.086Z,86.90
2022-09-12T03:55:29.325Z,88.14
2022-09-12T03:57:58.006Z,87.26
2022-09-12T04:00:25.926Z,88.58
2022-09-12T04:02:56.123Z,88.02
2022-09-12T04:05:25.072Z,86.94
2022-09-12T04:07:53.071Z,86.60
2022-09-12T04:10:21.142Z,85.78
2022-09-12T04:12:49.211Z,85.67
2022-09-12T04:15:17.389Z,86.24
2022-09-12T04:17:45.461Z,85.98
2022-09-12T04:20:13.404Z,85.85
2022-09-12T04:22:41.240Z,85.97
2022-09-12T04:25:09.741Z,85.89
2022-09-12T04:27:38.169Z,86.64
2022-09-12T04:30:06.820Z,87.49
2022-09-12T04:32:34.954Z,89.12
2022-09-12T04:35:03.713Z,88.71
2022-09-12T04:37:31.787Z,87.94
2022-09-12T04:39:59.899Z,88.51
2022-09-12T04:42:27.934Z,87.67
2022-09-12T04:44:56.007Z,89.00
2022-09-12T04:47:24.594Z,90.01
2022-09-12T04:49:52.668Z,89.44
2022-09-12T04:52:21.483Z,86.89
2022-09-12T04:54:49.329Z,87.02
2022-09-12T04:57:17.342Z,87.05
2022-09-12T04:59:45.273Z,87.37
2022-09-12T05:02:13.303Z,87.54
2022-09-12T05:04:41.543Z,87.73
2022-09-12T05:07:09.793Z,86.69
2022-09-12T05:09:38.891Z,85.96
2022-09-12T05:12:07.975Z,85.74
2022-09-12T05:14:35.887Z,84.70
2022-09-12T05:17:06.227Z,83.26
2022-09-12T05:19:35.180Z,82.64
2022-09-12T05:22:03.253Z,81.75
2022-09-12T05:24:31.401Z,81.86
2022-09-12T05:26:59.428Z,80.85
2022-09-12T05:29:27.326Z,80.55
2022-09-12T05:31:55.443Z,80.37
2022-09-12T05:34:23.636Z,80.10
2022-09-12T05:36:51.589Z,80.76
2022-09-12T05:39:19.804Z,79.31
2022-09-12T05:41:48.456Z,79.14
2022-09-12T05:44:16.627Z,78.81
2022-09-12T05:46:51.423Z,78.36
2022-09-12T05:49:19.667Z,78.20
2022-09-12T05:51:47.585Z,79.46
2022-09-12T05:54:18.225Z,78.54
2022-09-12T05:56:46.539Z,78.15
2022-09-12T05:59:16.892Z,77.93
2022-09-12T06:01:45.590Z,78.45
2022-09-12T06:04:13.824Z,78.07
2022-09-12T06:06:45.204Z,77.99
2022-09-12T06:09:15.102Z,76.02
2022-09-12T06:11:44.175Z,73.21
2022-09-12T06:14:14.980Z,74.19
2022-09-12T06:16:43.047Z,72.93
2022-09-12T06:19:16.213Z,73.29
2022-09-12T06:21:45.069Z,70.94
2022-09-12T06:24:13.450Z,70.49
2022-09-12T06:26:44.025Z,70.38
2022-09-12T06:29:13.343Z,69.19
2022-09-12T06:31:41.976Z,69.88
2022-09-12T06:34:11.038Z,70.54
2022-09-12T06:36:43.609Z,70.00
2022-09-12T06:39:13.154Z,69.29
2022-09-12T06:41:44.091Z,67.00
2022-09-12T06:44:14.421Z,67.85
2022-09-12T06:46:42.801Z,67.58
2022-09-12T06:49:11.098Z,68.19
2022-09-12T06:51:42.849Z,69.52
2022-09-12T06:54:15.656Z,69.46
2022-09-12T06:56:44.430Z,69.14
2022-09-12T06:59:12.813Z,70.85
2022-09-12T07:01:41.991Z,69.01
2022-09-12T07:04:10.886Z,68.55
2022-09-12T07:06:42.196Z,67.71
2022-09-12T07:09:12.080Z,66.28
2022-09-12T07:11:41.045Z,67.93
2022-09-12T07:14:10.741Z,66.63
2022-09-12T07:16:39.283Z,66.51
2022-09-12T07:19:08.336Z,66.94
2022-09-12T07:21:40.690Z,65.38
2022-09-12T07:24:12.062Z,65.33
2022-09-12T07:26:42.593Z,65.32
2022-09-12T07:29:35.822Z,65.83
2022-09-12T07:32:06.017Z,66.26
2022-09-12T07:34:34.773Z,67.05
2022-09-12T07:37:02.946Z,66.21
2022-09-12T07:39:31.013Z,65.37
2022-09-12T07:42:00.516Z,67.04
2022-09-12T07:44:30.324Z,66.65
2022-09-12T07:46:58.758Z,65.90
2022-09-12T07:49:26.997Z,65.42
2022-09-12T07:51:54.920Z,65.49
2022-09-12T07:54:23.145Z,62.82
2022-09-12T07:56:51.934Z,62.35
2022-09-12T07:59:35.663Z,63.89
2022-09-12T08:02:17.259Z,64.30
2022-09-12T08:04:47.085Z,63.29
2022-09-12T08:07:15.775Z,64.54
2022-09-12T08:09:43.736Z,64.84
2022-09-12T08:12:11.680Z,64.55
2022-09-12T08:14:40.103Z,64.05
2022-09-12T08:17:07.977Z,63.55
2022-09-12T08:19:36.118Z,63.19
2022-09-12T08:22:04.574Z,64.23
2022-09-12T08:24:32.688Z,63.53
2022-09-12T08:27:01.073Z,64.52
2022-09-12T08:29:29.040Z,63.19
2022-09-12T08:31:57.479Z,63.21
2022-09-12T08:34:26.314Z,64.24
2022-09-12T08:36:54.830Z,65.01
2022-09-12T08:39:22.788Z,62.98
2022-09-12T08:42:02.273Z,63.68
2022-09-12T08:44:42.609Z,61.99
2022-09-12T08:47:11.793Z,62.77
2022-09-12T08:49:45.699Z,62.60
2022-09-12T08:52:17.234Z,63.19
2022-09-12T08:54:48.003Z,62.09
2022-09-12T08:57:16.178Z,63.29
2022-09-12T08:59:45.577Z,62.87
2022-09-12T09:02:19.711Z,62.16
2022-09-12T09:04:47.789Z,61.89
2022-09-12T09:07:23.060Z,61.13
2022-09-12T09:09:54.883Z,60.66
2022-09-12T09:12:43.236Z,59.98
2022-09-12T09:15:22.040Z,59.86
2022-09-12T09:17:55.098Z,60.35
2022-09-12T09:20:44.174Z,60.59
2022-09-12T09:23:34.215Z,57.48
2022-09-12T09:26:11.400Z,58.43
2022-09-12T09:28:46.736Z,58.81
2022-09-12T09:31:15.934Z,57.83
2022-09-12T09:33:44.713Z,58.09
2022-09-12T09:36:14.146Z,57.06
2022-09-12T09:38:48.323Z,57.65
2022-09-12T09:41:26.024Z,57.79
2022-09-12T09:43:56.761Z,59.18
2022-09-12T09:46:26.998Z,58.92
2022-09-12T09:48:55.667Z,57.27
2022-09-12T09:51:27.464Z,57.13
2022-09-12T09:54:02.242Z,56.84
2022-09-12T09:56:34.637Z,55.21
2022-09-12T09:59:10.684Z,56.04
2022-09-12T10:01:47.494Z,55.13
2022-09-12T10:04:41.392Z,55.03
2022-09-12T10:07:18.943Z,55.80
2022-09-12T10:10:05.741Z,54.66
2022-09-12T10:12:34.352Z,55.22
2022-09-12T10:15:04.006Z,54.73
2022-09-12T10:17:39.487Z,55.89
2022-09-12T10:20:27.835Z,55.00
2022-09-12T10:22:56.060Z,52.91
2022-09-12T10:25:25.237Z,53.28
2022-09-12T10:27:54.820Z,53.35
2022-09-12T10:30:28.424Z,53.06
2022-09-12T10:33:00.095Z,52.34
2022-09-12T10:35:31.146Z,52.24
2022-09-12T10:37:59.612Z,51.88
2022-09-12T10:40:29.697Z,52.30
2022-09-12T10:42:59.337Z,51.66
2022-09-12T10:45:32.507Z,52.55
2022-09-12T10:48:06.843Z,51.91
2022-09-12T10:50:41.414Z,49.63
2022-09-12T10:53:20.564Z,50.44
2022-09-12T10:56:01.550Z,50.37
2022-09-12T10:58:35.496Z,50.06
2022-09-12T11:01:12.508Z,50.57
2022-09-12T11:03:52.214Z,50.98
2022-09-12T11:06:26.093Z,50.33
2022-09-12T11:09:06.497Z,50.24
2022-09-12T11:12:01.323Z,51.33
2022-09-12T11:14:38.532Z,50.77
2022-09-12T11:17:17.756Z,50.18
2022-09-12T11:20:04.838Z,50.21
2022-09-12T11:22:51.652Z,50.44
2022-09-12T11:25:35.852Z,48.93
2022-09-12T11:28:19.239Z,48.39
2022-09-12T11:30:56.870Z,48.24
2022-09-12T11:33:34.126Z,49.79
2022-09-12T11:36:05.269Z,50.24
2022-09-12T11:38:39.050Z,50.20
2022-09-12T11:41:40.550Z,48.76
2022-09-12T11:44:12.013Z,46.81
2022-09-12T11:46:45.896Z,46.64
2022-09-12T11:49:20.259Z,46.55
2022-09-12T11:51:48.397Z,47.24
2022-09-12T11:54:35.014Z,47.93
2022-09-12T11:57:16.945Z,48.84
2022-09-12T11:59:47.836Z,48.52
2022-09-12T12:02:28.252Z,48.20
2022-09-12T12:04:58.574Z,48.66
2022-09-12T12:07:26.573Z,47.61
2022-09-12T12:09:55.290Z,47.51
2022-09-12T12:12:26.126Z,45.53
2022-09-12T12:14:56.349Z,47.59
2022-09-12T12:17:25.022Z,48.81
2022-09-12T12:20:06.713Z,48.40
2022-09-12T12:22:36.724Z,47.12
2022-09-12T12:25:06.971Z,47.59
2022-09-12T12:27:44.366Z,46.50
2022-09-12T12:30:30.479Z,45.30
2022-09-12T12:33:07.360Z,45.54
2022-09-12T12:35:43.158Z,46.69
2022-09-12T12:38:32.059Z,44.86
2022-09-12T12:41:18.585Z,44.97
2022-09-12T12:43:51.040Z,46.00
2022-09-12T12:46:24.046Z,45.72
2022-09-12T12:48:54.846Z,47.26
2022-09-12T12:51:43.015Z,46.14
2022-09-12T12:54:28.189Z,44.27
2022-09-12T12:57:03.688Z,43.98
2022-09-12T12:59:32.474Z,43.55
2022-09-12T13:02:00.758Z,43.39
2022-09-12T13:04:30.807Z,42.87
2022-09-12T13:07:08.165Z,43.28
2022-09-12T13:09:44.842Z,45.62
2022-09-12T13:12:24.122Z,46.21
2022-09-12T13:14:59.684Z,46.54
2022-09-12T13:17:37.083Z,46.43
2022-09-12T13:20:27.970Z,46.01
2022-09-12T13:22:57.579Z,47.22
2022-09-12T13:25:29.231Z,48.07
2022-09-12T13:28:02.433Z,48.49
2022-09-12T13:30:32.348Z,48.88
2022-09-12T13:33:08.322Z,49.35
2022-09-12T13:35:39.045Z,50.09
2022-09-12T13:38:22.526Z,49.94
2022-09-12T13:41:05.512Z,50.35
2022-09-12T13:43:40.342Z,50.02
2022-09-12T13:46:11.122Z,51.20
2022-09-12T13:48:39.588Z,51.22
2022-09-12T13:51:08.021Z,51.24
2022-09-12T13:53:42.696Z,51.09
2022-09-12T13:56:15.973Z,52.23
2022-09-12T13:59:01.182Z,52.02
2022-09-12T14:01:40.273Z,51.07
2022-09-12T14:04:39.487Z,51.43
2022-09-12T14:07:16.652Z,52.42
2022-09-12T14:09:45.882Z,51.85
2022-09-12T14:12:25.931Z,51.25
2022-09-12T14:14:54.094Z,52.45
2022-09-12T14:17:29.855Z,52.69
2022-09-12T14:20:04.112Z,53.15
2022-09-12T14:22:34.303Z,52.78
2022-09-12T14:25:03.063Z,52.48
2022-09-12T14:27:57.496Z,53.29
2022-09-12T14:30:36.696Z,53.16
2022-09-12T14:33:05.883Z,52.74
2022-09-12T14:35:33.807Z,53.91
2022-09-12T14:38:27.934Z,54.17
2022-09-12T14:41:01.286Z,54.46
2022-09-12T14:43:29.215Z,54.24
2022-09-12T14:46:03.472Z,54.08
2022-09-12T14:48:46.833Z,54.43
2022-09-12T14:51:35.137Z,54.48
2022-09-12T14:54:03.185Z,55.08
2022-09-12T14:56:41.910Z,54.60
2022-09-12T14:59:28.619Z,54.75
2022-09-12T15:02:15.328Z,54.97
2022-09-12T15:04:45.409Z,55.26
2022-09-12T15:07:33.902Z,55.61
2022-09-12T15:10:03.594Z,56.11
2022-09-12T15:12:31.493Z,57.06
2022-09-12T15:15:07.974Z,57.46
2022-09-12T15:17:35.856Z,57.91
2022-09-12T15:20:03.821Z,58.49
2022-09-12T15:22:33.278Z,59.28
2022-09-12T15:25:01.200Z,59.26
2022-09-12T15:27:29.754Z,59.24
2022-09-12T15:29:58.086Z,59.00
2022-09-12T15:32:27.142Z,58.87
2022-09-12T15:34:55.278Z,58.56
2022-09-12T15:37:24.344Z,58.35
2022-09-12T15:39:52.257Z,59.18
2022-09-12T15:42:29.298Z,59.12
2022-09-12T15:45:01.800Z,59.83
2022-09-12T15:47:30.340Z,59.76
2022-09-12T15:49:58.170Z,60.34
2022-09-12T15:52:26.109Z,61.14
2022-09-12T15:54:53.908Z,61.13
2022-09-12T15:57:21.863Z,61.28
2022-09-12T15:59:49.874Z,61.43
2022-09-12T16:02:17.688Z,61.74
2022-09-12T16:04:47.676Z,62.43
2022-09-12T16:07:15.619Z,63.17
2022-09-12T16:09:43.640Z,63.60
2022-09-12T16:12:11.662Z,63.55
2022-09-12T16:14:39.836Z,63.96
2022-09-12T16:17:08.132Z,64.20
2022-09-12T16:19:36.066Z,64.66
2022-09-12T16:22:03.900Z,65.04
2022-09-12T16:24:31.813Z,65.17
2022-09-12T16:27:01.261Z,65.34
2022-09-12T16:29:30.137Z,65.35
2022-09-12T16:31:58.203Z,65.58
2022-09-12T16:34:26.268Z,65.34
2022-09-12T16:36:54.237Z,65.37
2022-09-12T16:39:22.175Z,65.62
2022-09-12T16:41:50.492Z,65.36
2022-09-12T16:44:18.629Z,65.18
2022-09-12T16:46:46.701Z,65.15
2022-09-12T16:49:14.697Z,66.45
2022-09-12T16:51:47.494Z,67.00
2022-09-12T16:54:16.305Z,67.85
2022-09-12T16:56:44.457Z,69.09
2022-09-12T16:59:16.421Z,68.86
2022-09-12T17:01:45.307Z,68.71
2022-09-12T17:04:14.099Z,67.77
2022-09-12T17:06:42.793Z,68.28
2022-09-12T17:09:11.680Z,68.78
2022-09-12T17:11:40.064Z,69.63
2022-09-12T17:14:08.925Z,69.28
2022-09-12T17:16:49.239Z,68.71
2022-09-12T17:19:20.890Z,69.70
2022-09-12T17:21:51.684Z,70.06
2022-09-12T17:24:20.097Z,70.78
2022-09-12T17:26:48.166Z,71.03
2022-09-12T17:29:17.263Z,71.08
2022-09-12T17:31:45.646Z,72.68
2022-09-12T17:34:17.842Z,72.25
2022-09-12T17:36:48.491Z,71.98
2022-09-12T17:39:16.501Z,71.90
2022-09-12T17:41:46.202Z,72.01
2022-09-12T17:44:15.290Z,72.84
2022-09-12T17:46:44.434Z,73.45
2022-09-12T17:49:13.933Z,73.60
2022-09-12T17:51:43.983Z,73.91
2022-09-12T17:54:15.085Z,74.01
2022-09-12T17:56:44.533Z,74.75
2022-09-12T17:59:19.568Z,75.01
2022-09-12T18:02:06.500Z,75.04
2022-09-12T18:04:34.940Z,74.09
2022-09-12T18:07:04.414Z,73.72
2022-09-12T18:09:32.947Z,73.62
2022-09-12T18:12:01.615Z,73.89
2022-09-12T18:14:29.807Z,74.08
2022-09-12T18:16:58.287Z,73.86
2022-09-12T18:19:27.497Z,73.45
2022-09-12T18:21:56.170Z,73.38
2022-09-12T18:24:24.755Z,73.64
2022-09-12T18:26:52.739Z,73.80
2022-09-12T18:29:21.507Z,74.18
2022-09-12T18:31:50.546Z,74.53
2022-09-12T18:34:18.576Z,75.05
2022-09-12T18:36:48.040Z,76.00
2022-09-12T18:39:17.412Z,76.62
2022-09-12T18:41:45.236Z,76.77
2022-09-12T18:44:13.223Z,76.93
2022-09-12T18:46:41.790Z,77.34
2022-09-12T18:49:10.556Z,78.72
2022-09-12T18:51:40.241Z,77.31
2022-09-12T18:54:12.065Z,77.93
2022-09-12T18:56:41.534Z,78.09
2022-09-12T18:59:09.978Z,77.92
2022-09-12T19:01:38.195Z,78.31
2022-09-12T19:04:07.787Z,79.14
2022-09-12T19:06:38.607Z,78.82
2022-09-12T19:09:08.451Z,79.17
2022-09-12T19:11:40.407Z,78.89
2022-09-12T19:14:08.563Z,79.40
2022-09-12T19:16:37.019Z,79.58
2022-09-12T19:19:04.928Z,81.32
2022-09-12T19:21:34.585Z,82.06
2022-09-12T19:24:04.519Z,81.78
2022-09-12T19:26:33.718Z,81.61
2022-09-12T19:29:03.135Z,81.66
2022-09-12T19:31:32.053Z,81.43
2022-09-12T19:34:04.701Z,82.11
2022-09-12T19:36:44.958Z,81.61
2022-09-12T19:39:15.119Z,80.09
2022-09-12T19:41:43.875Z,80.45
2022-09-12T19:44:12.027Z,79.87
2022-09-12T19:46:40.619Z,80.29
2022-09-12T19:49:10.032Z,80.56
2022-09-12T19:51:38.093Z,80.11
2022-09-12T19:54:07.934Z,79.84
2022-09-12T19:56:36.299Z,80.55
2022-09-12T19:59:04.930Z,80.51
2022-09-12T20:01:34.973Z,80.38
2022-09-12T20:04:03.361Z,81.00
2022-09-12T20:06:31.468Z,79.36
2022-09-12T20:09:00.147Z,80.17
2022-09-12T20:11:28.176Z,80.68
2022-09-12T20:13:56.191Z,79.04
2022-09-12T20:16:29.817Z,78.01
2022-09-12T20:18:59.840Z,77.51
2022-09-12T20:21:32.404Z,78.68
2022-09-12T20:24:20.684Z,76.26
2022-09-12T20:26:48.610Z,75.26
2022-09-12T20:29:16.538Z,74.93
2022-09-12T20:31:45.063Z,74.17
2022-09-12T20:34:17.227Z,75.61
2022-09-12T20:36:45.554Z,77.56
2022-09-12T20:39:18.302Z,77.86
2022-09-12T20:41:46.682Z,77.89
2022-09-12T20:44:15.001Z,76.62
2022-09-12T20:46:43.156Z,75.81
2022-09-12T20:49:11.303Z,73.21
2022-09-12T20:51:39.221Z,72.62
2022-09-12T20:54:07.480Z,72.27
2022-09-12T20:56:36.611Z,73.00
2022-09-12T20:59:05.446Z,71.47
2022-09-12T21:01:33.622Z,72.55
2022-09-12T21:04:02.559Z,72.25
2022-09-12T21:06:31.649Z,72.49
2022-09-12T21:09:00.787Z,72.16
2022-09-12T21:11:29.406Z,73.13
2022-09-12T21:13:58.078Z,72.11
2022-09-12T21:16:26.567Z,71.99
2022-09-12T21:18:56.172Z,73.31
2022-09-12T21:21:24.733Z,74.16
2022-09-12T21:23:55.621Z,72.75
2022-09-12T21:26:23.465Z,72.37
2022-09-12T21:28:51.394Z,72.30
2022-09-12T21:31:19.435Z,72.28
2022-09-12T21:33:47.828Z,72.16
2022-09-12T21:36:15.895Z,70.83
2022-09-12T21:38:44.036Z,70.81
2022-09-12T21:41:13.823Z,70.84
2022-09-12T21:43:42.786Z,69.83
2022-09-12T21:46:11.269Z,70.48
2022-09-12T21:48:39.522Z,70.56
2022-09-12T21:51:07.473Z,70.64
2022-09-12T21:53:35.709Z,72.76
2022-09-12T21:56:04.970Z,73.45
2022-09-12T21:58:33.208Z,72.40
2022-09-12T22:01:01.680Z,71.10
2022-09-12T22:03:30.027Z,71.55
2022-09-12T22:05:59.091Z,73.75
2022-09-12T22:08:27.400Z,74.33
2022-09-12T22:11:02.742Z,75.94
2022-09-12T22:13:33.824Z,73.74
2022-09-12T22:16:03.482Z,72.61
2022-09-12T22:18:35.532Z,71.24
2022-09-12T22:21:12.719Z,71.84
2022-09-12T22:23:59.739Z,71.11
2022-09-12T22:26:27.914Z,70.67
2022-09-12T22:28:56.402Z,71.25
2022-09-12T22:31:24.546Z,71.01
2022-09-12T22:33:54.928Z,70.07
2022-09-12T22:36:23.596Z,71.13
2022-09-12T22:38:51.661Z,70.80
2022-09-12T22:41:19.639Z,70.69
2022-09-12T22:43:47.695Z,71.37
2022-09-12T22:46:15.563Z,71.54
2022-09-12T22:48:43.747Z,71.77
2022-09-12T22:51:11.700Z,71.55
2022-09-12T22:53:39.691Z,70.82
2022-09-12T22:56:08.775Z,70.25
2022-09-12T22:58:37.601Z,69.10
2022-09-12T23:01:06.463Z,69.55
2022-09-12T23:03:36.588Z,69.37
2022-09-12T23:06:04.832Z,69.48
2022-09-12T23:08:35.078Z,69.43
2022-09-12T23:11:09.609Z,68.95
2022-09-12T23:13:38.318Z,69.75
2022-09-12T23:16:07.644Z,71.00
2022-09-12T23:18:36.537Z,70.14
2022-09-12T23:21:05.863Z,70.02
2022-09-12T23:23:35.103Z,69.33
2022-09-12T23:26:03.197Z,70.77
2022-09-12T23:28:31.382Z,71.35
2022-09-12T23:31:00.480Z,70.69
2022-09-12T23:33:29.342Z,70.57
2022-09-12T23:36:02.338Z,70.32
2022-09-12T23:38:30.512Z,70.76
2022-09-12T23:40:58.616Z,70.67
2022-09-12T23:43:27.269Z,71.37
2022-09-12T23:45:55.356Z,71.37
2022-09-12T23:48:23.618Z,70.15
2022-09-12T23:50:52.048Z,70.03
2022-09-12T23:53:20.994Z,70.67
2022-09-12T23:55:49.579Z,70.09
2022-09-12T23:58:17.978Z,69.91
